createdAt,value
2019-05-20T00:01:24.393Z,97310.68
2019-05-20T00:04:50.018Z,97309.61
2019-05-20T00:08:16.030Z,97316.66
2019-05-20T00:11:41.631Z,97316.46
2019-05-20T00:15:09.447Z,97307.72
2019-05-20T00:18:35.061Z,97315.12
2019-05-20T00:22:00.682Z,97314.73
2019-05-20T00:25:27.260Z,97309.77
2019-05-20T00:28:52.896Z,97306.84
2019-05-20T00:32:18.567Z,97299.34
2019-05-20T00:35:44.170Z,97305.59
2019-05-20T00:39:17.431Z,97298.64
2019-05-20T00:42:43.050Z,97303.44
2019-05-20T00:46:08.694Z,97303.36
2019-05-20T00:49:35.278Z,97303.47
2019-05-20T00:53:02.567Z,97310.03
2019-05-20T00:56:29.422Z,97308.42
2019-05-20T00:59:55.029Z,97302.05
2019-05-20T01:03:20.653Z,97309.56
2019-05-20T01:06:46.404Z,97314.17
2019-05-20T01:10:12.259Z,97305.27
2019-05-20T01:13:37.879Z,97309.28
2019-05-20T01:17:03.518Z,97306.41
2019-05-20T01:20:29.185Z,97312.30
2019-05-20T01:23:54.799Z,97307.48
2019-05-20T01:27:20.412Z,97318.37
2019-05-20T01:30:46.380Z,97320.63
2019-05-20T01:34:11.991Z,97319.36
2019-05-20T01:37:37.599Z,97317.48
2019-05-20T01:41:04.568Z,97317.23
2019-05-20T01:44:30.575Z,97316.56
2019-05-20T01:47:56.193Z,97321.90
2019-05-20T01:51:21.801Z,97316.75
2019-05-20T01:54:47.468Z,97316.64
2019-05-20T01:58:13.737Z,97318.23
2019-05-20T02:01:40.772Z,97314.81
2019-05-20T02:05:09.607Z,97317.72
2019-05-20T02:08:35.792Z,97310.22
2019-05-20T02:12:01.398Z,97312.47
2019-05-20T02:15:40.791Z,97315.30
2019-05-20T02:19:06.675Z,97312.56
2019-05-20T02:22:32.286Z,97322.81
2019-05-20T02:25:57.897Z,97319.25
2019-05-20T02:29:23.813Z,97323.07
2019-05-20T02:32:49.518Z,97315.52
2019-05-20T02:36:16.582Z,97317.66
2019-05-20T02:39:42.180Z,97308.44
2019-05-20T02:43:07.958Z,97304.81
2019-05-20T02:46:33.577Z,97301.95
2019-05-20T02:50:00.098Z,97298.34
2019-05-20T02:53:26.424Z,97305.28
2019-05-20T02:56:52.432Z,97305.45
2019-05-20T03:00:18.415Z,97313.05
2019-05-20T03:03:44.025Z,97315.02
2019-05-20T03:07:09.639Z,97311.34
2019-05-20T03:10:35.243Z,97324.48
2019-05-20T03:14:01.234Z,97327.50
2019-05-20T03:17:26.854Z,97329.94
2019-05-20T03:20:52.461Z,97330.02
2019-05-20T03:24:18.597Z,97329.50
2019-05-20T03:27:44.313Z,97339.72
2019-05-20T03:31:10.655Z,97339.02
2019-05-20T03:34:46.573Z,97342.13
2019-05-20T03:38:03.593Z,97344.30
2019-05-20T03:41:29.198Z,97350.28
2019-05-20T03:44:55.218Z,97341.08
2019-05-20T03:48:20.901Z,97343.86
2019-05-20T03:51:46.514Z,97338.66
2019-05-20T03:55:12.542Z,97338.66
2019-05-20T03:58:38.239Z,97342.45
2019-05-20T04:02:04.719Z,97345.19
2019-05-20T04:05:30.415Z,97344.87
2019-05-20T04:08:57.686Z,97340.50
2019-05-20T04:12:23.309Z,97345.70
2019-05-20T04:15:48.905Z,97351.28
2019-05-20T04:19:14.577Z,97350.13
2019-05-20T04:22:40.177Z,97353.71
2019-05-20T04:26:05.805Z,97358.22
2019-05-20T04:29:31.631Z,97360.38
2019-05-20T04:32:57.386Z,97365.67
2019-05-20T04:36:22.992Z,97368.02
2019-05-20T04:39:48.882Z,97369.11
2019-05-20T04:43:14.532Z,97367.10
2019-05-20T04:46:40.530Z,97358.95
2019-05-20T04:50:09.202Z,97358.44
2019-05-20T04:53:35.777Z,97364.93
2019-05-20T04:57:01.383Z,97371.23
2019-05-20T05:00:50.820Z,97374.17
2019-05-20T05:04:16.431Z,97373.42
2019-05-20T05:07:42.071Z,97379.37
2019-05-20T05:11:07.699Z,97377.02
2019-05-20T05:14:33.834Z,97387.20
2019-05-20T05:17:59.438Z,97387.15
2019-05-20T05:21:25.156Z,97386.89
2019-05-20T05:24:50.765Z,97389.56
2019-05-20T05:28:17.888Z,97395.24
2019-05-20T05:31:44.254Z,97396.30
2019-05-20T05:35:11.624Z,97402.70
2019-05-20T05:38:37.231Z,97397.64
2019-05-20T05:42:02.882Z,97393.64
2019-05-20T05:45:34.324Z,97399.67
2019-05-20T05:49:00.563Z,97397.32
2019-05-20T05:52:26.235Z,97400.05
2019-05-20T05:55:51.893Z,97398.39
2019-05-20T05:59:17.574Z,97399.41
2019-05-20T06:02:43.727Z,97399.34
2019-05-20T06:06:12.604Z,97395.16
2019-05-20T06:09:36.690Z,97402.24
2019-05-20T06:13:03.121Z,97405.09
2019-05-20T06:16:36.519Z,97406.88
2019-05-20T06:19:56.036Z,97410.96
2019-05-20T06:23:21.740Z,97406.88
2019-05-20T06:26:47.353Z,97405.36
2019-05-20T06:30:14.695Z,97409.80
2019-05-20T06:33:40.307Z,97408.02
2019-05-20T06:37:23.006Z,97412.95
2019-05-20T06:40:48.610Z,97411.28
2019-05-20T06:44:14.450Z,97412.09
2019-05-20T06:47:40.068Z,97418.78
2019-05-20T06:51:06.748Z,97429.91
2019-05-20T06:54:32.779Z,97430.63
2019-05-20T06:57:58.409Z,97436.25
2019-05-20T07:01:24.017Z,97432.13
2019-05-20T07:04:50.841Z,97432.53
2019-05-20T07:08:16.449Z,97425.72
2019-05-20T07:11:51.903Z,97436.66
2019-05-20T07:15:10.853Z,97440.41
2019-05-20T07:18:37.053Z,97445.37
2019-05-20T07:22:03.135Z,97447.66
2019-05-20T07:25:28.846Z,97448.38
2019-05-20T07:28:54.824Z,97451.77
2019-05-20T07:32:21.342Z,97452.63
2019-05-20T07:35:47.012Z,97448.09
2019-05-20T07:39:12.717Z,97458.31
2019-05-20T07:42:38.392Z,97462.39
2019-05-20T07:46:05.324Z,97458.52
2019-05-20T07:49:31.417Z,97446.22
2019-05-20T07:53:00.416Z,97459.14
2019-05-20T07:56:30.024Z,97454.59
2019-05-20T07:59:56.853Z,97458.56
2019-05-20T08:03:24.286Z,97464.34
2019-05-20T08:06:50.778Z,97462.00
2019-05-20T08:10:17.126Z,97462.23
2019-05-20T08:13:43.687Z,97465.72
2019-05-20T08:17:09.686Z,97471.97
2019-05-20T08:20:35.540Z,97471.97
2019-05-20T08:24:01.772Z,97475.20
2019-05-20T08:27:27.938Z,97474.02
2019-05-20T08:30:53.557Z,97478.39
2019-05-20T08:34:19.149Z,97481.24
2019-05-20T08:37:46.121Z,97478.78
2019-05-20T08:41:12.386Z,97476.48
2019-05-20T08:44:38.010Z,97468.18
2019-05-20T08:48:03.603Z,97470.23
2019-05-20T08:51:29.981Z,97476.86
2019-05-20T08:54:55.585Z,97489.31
2019-05-20T08:58:22.373Z,97486.33
2019-05-20T09:01:49.571Z,97479.06
2019-05-20T09:05:15.355Z,97475.52
2019-05-20T09:08:41.875Z,97477.55
2019-05-20T09:12:07.799Z,97479.23
2019-05-20T09:15:33.417Z,97488.97
2019-05-20T09:18:59.101Z,97488.48
2019-05-20T09:22:24.696Z,97481.45
2019-05-20T09:25:50.398Z,97483.84
2019-05-20T09:29:16.079Z,97486.07
2019-05-20T09:32:43.132Z,97483.02
2019-05-20T09:36:09.093Z,97483.61
2019-05-20T09:39:35.511Z,97484.94
2019-05-20T09:43:01.679Z,97490.44
2019-05-20T09:46:27.380Z,97481.56
2019-05-20T09:49:52.985Z,97472.92
2019-05-20T09:53:18.721Z,97483.42
2019-05-20T09:56:44.321Z,97485.62
2019-05-20T10:00:11.930Z,97487.33
2019-05-20T10:03:37.947Z,97479.56
2019-05-20T10:07:03.721Z,97485.11
2019-05-20T10:10:29.748Z,97480.78
2019-05-20T10:13:55.614Z,97479.63
2019-05-20T10:17:21.229Z,97484.50
2019-05-20T10:20:46.877Z,97484.97
2019-05-20T10:24:12.478Z,97496.77
2019-05-20T10:27:38.104Z,97495.61
2019-05-20T10:31:03.709Z,97495.27
2019-05-20T10:34:29.332Z,97502.46
2019-05-20T10:37:54.959Z,97503.49
2019-05-20T10:41:20.582Z,97496.14
2019-05-20T10:44:46.228Z,97494.36
2019-05-20T10:48:12.746Z,97509.02
2019-05-20T10:51:38.345Z,97503.93
2019-05-20T10:55:05.417Z,97508.94
2019-05-20T10:58:31.187Z,97515.50
2019-05-20T11:01:56.904Z,97507.42
2019-05-20T11:05:23.596Z,97513.50
2019-05-20T11:08:49.208Z,97514.74
2019-05-20T11:12:14.819Z,97517.30
2019-05-20T11:15:41.402Z,97513.41
2019-05-20T11:19:07.013Z,97521.31
2019-05-20T11:22:33.055Z,97507.73
2019-05-20T11:25:58.704Z,97509.06
2019-05-20T11:29:25.849Z,97512.16
2019-05-20T11:32:51.978Z,97517.00
2019-05-20T11:36:18.105Z,97518.81
2019-05-20T11:39:44.093Z,97527.26
2019-05-20T11:43:09.788Z,97519.89
2019-05-20T11:46:35.693Z,97526.43
2019-05-20T11:50:01.329Z,97523.66
2019-05-20T11:53:27.640Z,97520.41
2019-05-20T11:56:53.704Z,97516.75
2019-05-20T12:00:20.415Z,97516.37
2019-05-20T12:03:46.178Z,97518.78
2019-05-20T12:07:11.743Z,97518.41
2019-05-20T12:10:37.818Z,97516.55
2019-05-20T12:14:05.370Z,97524.06
2019-05-20T12:18:34.818Z,97525.80
2019-05-20T12:22:00.477Z,97530.44
2019-05-20T12:25:26.128Z,97528.33
2019-05-20T12:28:51.730Z,97524.16
2019-05-20T12:32:17.361Z,97527.64
2019-05-20T12:35:42.983Z,97528.31
2019-05-20T12:39:08.912Z,97518.20
2019-05-20T12:42:34.496Z,97519.05
2019-05-20T12:46:00.411Z,97520.85
2019-05-20T12:49:26.239Z,97526.67
2019-05-20T12:52:52.189Z,97520.09
2019-05-20T12:56:19.699Z,97530.09
2019-05-20T12:59:45.269Z,97520.33
2019-05-20T13:03:10.962Z,97519.28
2019-05-20T13:06:36.912Z,97527.44
2019-05-20T13:10:03.461Z,97530.38
2019-05-20T13:13:41.327Z,97524.06
2019-05-20T13:17:06.928Z,97530.09
2019-05-20T13:20:32.819Z,97531.78
2019-05-20T13:23:58.442Z,97518.38
2019-05-20T13:27:24.067Z,97530.52
2019-05-20T13:30:50.282Z,97535.56
2019-05-20T13:34:18.692Z,97522.61
2019-05-20T13:37:45.331Z,97533.05
2019-05-20T13:41:10.964Z,97529.97
2019-05-20T13:44:37.377Z,97532.73
2019-05-20T13:48:03.455Z,97531.50
2019-05-20T13:51:29.209Z,97538.73
2019-05-20T13:54:55.408Z,97536.83
2019-05-20T13:58:25.045Z,97532.41
2019-05-20T14:01:50.662Z,97527.99
2019-05-20T14:05:16.789Z,97522.30
2019-05-20T14:08:42.490Z,97518.70
2019-05-20T14:12:08.092Z,97530.44
2019-05-20T14:15:33.762Z,97520.85
2019-05-20T14:18:59.357Z,97526.80
2019-05-20T14:22:25.489Z,97535.47
2019-05-20T14:25:51.105Z,97538.13
2019-05-20T14:29:16.893Z,97543.23
2019-05-20T14:32:42.492Z,97549.73
2019-05-20T14:36:08.113Z,97551.38
2019-05-20T14:39:33.714Z,97536.67
2019-05-20T14:42:59.441Z,97537.40
2019-05-20T14:46:25.125Z,97551.84
2019-05-20T14:49:51.319Z,97542.16
2019-05-20T14:53:16.940Z,97551.86
2019-05-20T14:56:43.647Z,97548.25
2019-05-20T15:00:10.563Z,97556.22
2019-05-20T15:03:36.231Z,97560.60
2019-05-20T15:07:01.807Z,97562.24
2019-05-20T15:10:27.537Z,97562.11
2019-05-20T15:13:53.170Z,97573.23
2019-05-20T15:17:18.856Z,97574.04
2019-05-20T15:20:44.614Z,97575.51
2019-05-20T15:24:12.259Z,97576.00
2019-05-20T15:27:39.262Z,97588.47
2019-05-20T15:31:04.969Z,97596.05
2019-05-20T15:34:30.627Z,97588.09
2019-05-20T15:37:56.254Z,97593.66
2019-05-20T15:41:21.929Z,97601.60
2019-05-20T15:44:47.562Z,97600.02
2019-05-20T15:48:13.166Z,97597.33
2019-05-20T15:51:38.772Z,97588.31
2019-05-20T15:55:06.476Z,97596.92
2019-05-20T15:58:32.615Z,97605.56
2019-05-20T16:01:58.203Z,97599.09
2019-05-20T16:05:24.156Z,97594.19
2019-05-20T16:08:49.748Z,97586.06
2019-05-20T16:12:15.377Z,97596.35
2019-05-20T16:15:43.945Z,97606.44
2019-05-20T16:19:09.595Z,97590.12
2019-05-20T16:22:35.254Z,97604.23
2019-05-20T16:26:00.910Z,97604.67
2019-05-20T16:29:26.573Z,97626.98
2019-05-20T16:32:52.274Z,97615.34
2019-05-20T16:36:17.866Z,97631.68
2019-05-20T16:39:43.496Z,97624.55
2019-05-20T16:43:09.484Z,97628.38
2019-05-20T16:46:35.996Z,97627.44
2019-05-20T16:50:01.589Z,97631.98
2019-05-20T16:53:27.488Z,97629.80
2019-05-20T16:56:53.254Z,97649.84
2019-05-20T17:00:31.337Z,97636.93
2019-05-20T17:03:50.335Z,97633.02
2019-05-20T17:07:16.635Z,97637.77
2019-05-20T17:10:42.231Z,97637.38
2019-05-20T17:14:10.535Z,97645.42
2019-05-20T17:17:35.170Z,97640.33
2019-05-20T17:21:01.571Z,97641.73
2019-05-20T17:24:27.243Z,97652.46
2019-05-20T17:27:52.858Z,97651.13
2019-05-20T17:31:19.455Z,97648.38
2019-05-20T17:34:45.077Z,97650.61
2019-05-20T17:38:13.808Z,97646.84
2019-05-20T17:41:40.103Z,97643.07
2019-05-20T17:45:09.212Z,97648.95
2019-05-20T17:48:35.243Z,97651.11
2019-05-20T17:52:01.279Z,97653.72
2019-05-20T17:55:27.161Z,97658.41
2019-05-20T17:58:53.816Z,97666.57
2019-05-20T18:02:19.535Z,97663.78
2019-05-20T18:05:46.670Z,97655.55
2019-05-20T18:09:13.553Z,97652.02
2019-05-20T18:12:39.223Z,97652.52
2019-05-20T18:16:05.109Z,97662.14
2019-05-20T18:19:30.907Z,97674.05
2019-05-20T18:22:56.504Z,97673.27
2019-05-20T18:26:22.345Z,97682.27
2019-05-20T18:29:48.940Z,97669.13
2019-05-20T18:33:14.930Z,97679.85
2019-05-20T18:36:41.383Z,97684.50
2019-05-20T18:40:14.111Z,97686.38
2019-05-20T18:43:36.496Z,97690.39
2019-05-20T18:47:02.775Z,97694.46
2019-05-20T18:50:28.565Z,97703.34
2019-05-20T18:53:54.234Z,97709.58
2019-05-20T18:57:20.452Z,97703.45
2019-05-20T19:00:46.325Z,97713.02
2019-05-20T19:04:12.418Z,97710.87
2019-05-20T19:07:38.282Z,97716.70
2019-05-20T19:11:04.063Z,97734.02
2019-05-20T19:14:29.789Z,97737.84
2019-05-20T19:17:55.732Z,97736.58
2019-05-20T19:21:21.335Z,97735.74
2019-05-20T19:24:46.992Z,97749.38
2019-05-20T19:28:13.573Z,97747.76
2019-05-20T19:31:39.208Z,97752.05
2019-05-20T19:35:07.993Z,97757.98
2019-05-20T19:38:35.151Z,97759.58
2019-05-20T19:42:00.822Z,97752.94
2019-05-20T19:45:26.505Z,97760.42
2019-05-20T19:48:52.190Z,97774.97
2019-05-20T19:52:17.833Z,97774.27
2019-05-20T19:55:43.490Z,97783.52
2019-05-20T19:59:09.185Z,97778.76
2019-05-20T20:02:34.861Z,97788.48
2019-05-20T20:06:00.532Z,97793.56
2019-05-20T20:09:26.210Z,97795.91
2019-05-20T20:12:51.895Z,97792.91
2019-05-20T20:16:18.332Z,97799.85
2019-05-20T20:19:44.098Z,97807.22
2019-05-20T20:23:09.946Z,97801.84
2019-05-20T20:26:35.538Z,97804.10
2019-05-20T20:30:01.300Z,97816.96
2019-05-20T20:33:28.888Z,97813.78
2019-05-20T20:36:54.615Z,97812.50
2019-05-20T20:40:20.435Z,97808.80
2019-05-20T20:43:46.081Z,97810.78
2019-05-20T20:47:11.755Z,97803.66
2019-05-20T20:50:37.390Z,97803.69
2019-05-20T20:54:03.227Z,97798.14
2019-05-20T20:57:29.190Z,97799.50
2019-05-20T21:00:54.822Z,97804.02
2019-05-20T21:04:20.516Z,97812.35
2019-05-20T21:07:46.174Z,97797.81
2019-05-20T21:11:11.849Z,97796.63
2019-05-20T21:14:37.582Z,97800.00
2019-05-20T21:18:03.456Z,97814.75
2019-05-20T21:21:30.261Z,97813.43
2019-05-20T21:24:55.895Z,97810.06
2019-05-20T21:28:22.048Z,97812.11
2019-05-20T21:31:47.705Z,97812.30
2019-05-20T21:35:13.552Z,97810.14
2019-05-20T21:38:39.164Z,97813.82
2019-05-20T21:42:04.848Z,97813.47
2019-05-20T21:45:30.532Z,97811.67
2019-05-20T21:48:56.153Z,97817.86
2019-05-20T21:52:21.746Z,97821.37
2019-05-20T21:55:47.354Z,97813.18
2019-05-20T21:59:12.960Z,97820.88
2019-05-20T22:02:38.565Z,97820.38
2019-05-20T22:06:04.429Z,97826.88
2019-05-20T22:09:30.128Z,97829.22
2019-05-20T22:12:55.736Z,97842.58
2019-05-20T22:16:21.348Z,97842.89
2019-05-20T22:19:46.949Z,97831.09
2019-05-20T22:23:15.048Z,97835.26
2019-05-20T22:26:41.766Z,97821.27
2019-05-20T22:30:09.501Z,97831.59
2019-05-20T22:33:41.459Z,97828.59
2019-05-20T22:37:02.672Z,97826.09
2019-05-20T22:40:28.290Z,97821.76
2019-05-20T22:43:53.911Z,97817.09
2019-05-20T22:47:19.511Z,97818.23
2019-05-20T22:50:48.534Z,97817.74
2019-05-20T22:54:12.472Z,97829.09
2019-05-20T22:57:38.093Z,97823.59
2019-05-20T23:01:03.861Z,97823.24
2019-05-20T23:04:29.475Z,97822.43
2019-05-20T23:07:55.071Z,97829.77
2019-05-20T23:11:20.681Z,97819.41
2019-05-20T23:14:46.277Z,97802.09
2019-05-20T23:18:11.877Z,97810.92
2019-05-20T23:21:37.492Z,97816.09
2019-05-20T23:25:03.111Z,97807.75
2019-05-20T23:28:28.696Z,97809.26
2019-05-20T23:31:54.318Z,97813.58
2019-05-20T23:35:19.915Z,97811.40
2019-05-20T23:38:45.858Z,97811.76
2019-05-20T23:42:11.704Z,97825.95
2019-05-20T23:45:37.304Z,97819.08
2019-05-20T23:49:02.903Z,97813.27
2019-05-20T23:52:28.626Z,97813.44
2019-05-20T23:55:54.305Z,97814.91
2019-05-20T23:59:19.930Z,97815.24
